Time;durP1;ratioP1;P1;durP2;ratioP2;P2;SDS_P1;SDS_P2;PMS_P1;PMS_P2;Temp;Humidity;BMP_temperature;BMP_pressure;BME280_temperature;BME280_humidity;BME280_pressure;Samples;Min_cycle;Max_cycle;Signal;HPM_P1;HPM_P2
2023/02/02 00:00:11;;;;;;;10.13;3.17;;;9.00;99.90;;;;;;4786611;29;20475;-80
2023/02/02 00:03:29;;;;;;;9.43;3.40;;;9.00;99.90;;;;;;4787711;29;20558;-80
2023/02/02 00:07:04;;;;;;;13.90;4.43;;;9.00;99.90;;;;;;4783382;29;20550;-79
2023/02/02 00:10:10;;;;;;;13.63;3.60;;;9.00;99.90;;;;;;4794974;29;20483;-80
2023/02/02 00:12:57;;;;;;;9.57;3.50;;;9.00;99.90;;;;;;4791924;29;20518;-80
2023/02/02 00:19:56;;;;;;;;;;;;;;;;;;;;;
2023/02/02 00:27:00;;;;;;;;;;;;;;;;;;;;;
2023/02/02 00:37:54;;;;;;;12.50;3.73;;;9.00;99.90;;;;;;4807938;29;20489;-80
2023/02/02 00:41:34;;;;;;;11.03;3.57;;;9.00;99.90;;;;;;4833672;29;20875;-80
2023/02/02 00:48:44;;;;;;;13.57;4.77;;;9.00;99.90;;;;;;4806541;29;20480;-80
2023/02/02 00:52:16;;;;;;;;;;;;;;;;;;;;;
2023/02/02 00:55:47;;;;;;;;;;;;;;;;;;;;;
2023/02/02 00:59:04;;;;;;;8.60;3.53;;;9.10;99.90;;;;;;4774071;29;20616;-79
2023/02/02 01:09:51;;;;;;;8.43;3.13;;;9.10;99.90;;;;;;4891891;29;20561;-80
2023/02/02 01:12:55;;;;;;;11.90;4.10;;;9.10;99.90;;;;;;4900122;29;20495;-80
2023/02/02 01:16:21;;;;;;;7.43;3.53;;;9.10;99.90;;;;;;4893624;29;20468;-80
2023/02/02 01:23:23;;;;;;;10.87;4.03;;;9.10;99.90;;;;;;4837617;29;20475;-80
2023/02/02 01:26:34;;;;;;;10.20;3.90;;;9.10;99.90;;;;;;4766171;29;20463;-80
2023/02/02 01:29:47;;;;;;;;;;;;;;;;;;;;;
2023/02/02 01:32:58;;;;;;;9.27;3.60;;;9.20;99.90;;;;;;4769941;29;20473;-80
2023/02/02 01:36:21;;;;;;;8.60;3.20;;;9.20;99.90;;;;;;4757455;29;20542;-80
2023/02/02 01:39:23;;;;;;;9.80;4.00;;;9.10;99.90;;;;;;4758220;29;20509;-81
2023/02/02 01:56:59;;;;;;;8.77;3.87;;;9.00;99.90;;;;;;4762912;29;20441;-80
2023/02/02 02:03:57;;;;;;;;;;;;;;;;;;;;;
2023/02/02 02:07:43;;;;;;;12.10;3.50;;;8.90;99.90;;;;;;4805988;29;20861;-80
2023/02/02 02:10:48;;;;;;;12.13;4.40;;;8.90;99.90;;;;;;4772773;29;20593;-81
2023/02/02 02:18:12;;;;;;;11.43;4.33;;;9.00;99.90;;;;;;4847104;29;20493;-81
2023/02/02 02:28:44;;;;;;;9.30;4.17;;;8.90;99.90;;;;;;4874849;29;20468;-81
2023/02/02 02:32:55;;;;;;;10.60;3.57;;;9.00;99.90;;;;;;4864388;29;20647;-80
2023/02/02 02:36:25;;;;;;;9.83;3.63;;;9.00;99.90;;;;;;4873224;29;20436;-80
2023/02/02 02:39:41;;;;;;;11.13;3.47;;;9.00;99.90;;;;;;4872138;29;20578;-81
2023/02/02 02:42:55;;;;;;;11.73;4.40;;;9.00;99.90;;;;;;4885708;29;20488;-81
2023/02/02 02:46:10;;;;;;;10.00;3.67;;;9.00;99.90;;;;;;4845751;29;20483;-79
2023/02/02 02:49:32;;;;;;;10.93;3.60;;;9.00;99.90;;;;;;4758555;30;20491;-81
2023/02/02 02:53:20;;;;;;;8.83;3.87;;;9.00;99.90;;;;;;4746636;30;21029;-81
2023/02/02 02:57:15;;;;;;;6.07;3.30;;;9.00;99.90;;;;;;4742755;30;20482;-80
2023/02/02 03:00:44;;;;;;;13.93;4.00;;;9.00;99.90;;;;;;4760621;29;20561;-81
2023/02/02 03:04:16;;;;;;;10.83;5.00;;;9.10;99.90;;;;;;4896911;23;20519;-80
2023/02/02 03:07:31;;;;;;;14.00;4.40;;;9.10;99.90;;;;;;4871643;29;20464;-80
2023/02/02 03:10:34;;;;;;;11.13;4.80;;;9.00;99.90;;;;;;4874605;29;20464;-81
2023/02/02 03:18:15;;;;;;;11.10;4.30;;;9.00;99.90;;;;;;4920884;29;20475;-80
2023/02/02 03:21:34;;;;;;;11.60;4.37;;;9.00;99.90;;;;;;4911379;29;20461;-80
2023/02/02 03:24:52;;;;;;;12.37;4.73;;;9.00;99.90;;;;;;4924855;28;20489;-80
2023/02/02 03:27:45;;;;;;;11.20;4.30;;;9.00;99.90;;;;;;4903882;29;20466;-79
2023/02/02 03:30:56;;;;;;;11.83;5.67;;;9.00;99.90;;;;;;4915896;29;21082;-79
2023/02/02 03:33:45;;;;;;;14.57;4.90;;;9.00;99.90;;;;;;4976112;23;20486;-79
2023/02/02 03:37:04;;;;;;;10.67;3.80;;;9.00;99.90;;;;;;4914602;28;20455;-81
2023/02/02 03:48:04;;;;;;;11.87;4.30;;;8.90;99.90;;;;;;4909628;29;20435;-80
2023/02/02 03:54:44;;;;;;;11.77;4.97;;;8.90;99.90;;;;;;4882693;29;20466;-81
2023/02/02 03:57:41;;;;;;;12.93;5.57;;;8.90;99.90;;;;;;4854371;29;20483;-81
2023/02/02 04:00:59;;;;;;;7.17;3.90;;;9.00;99.90;;;;;;4844904;29;20519;-81
2023/02/02 04:04:38;;;;;;;11.50;4.53;;;9.00;99.90;;;;;;4852798;29;20926;-81
2023/02/02 04:07:39;;;;;;;9.43;4.33;;;8.90;99.90;;;;;;4850224;29;20549;-81
2023/02/02 04:11:11;;;;;;;12.87;5.33;;;8.90;99.90;;;;;;4852706;29;20482;-80
2023/02/02 04:14:10;;;;;;;;;;;;;;;;;;;;;
2023/02/02 04:24:25;;;;;;;13.37;4.70;;;8.90;99.90;;;;;;4002928;27;20498;-79
2023/02/02 04:27:34;;;;;;;9.63;4.13;;;8.90;99.90;;;;;;4849214;29;20556;-79
2023/02/02 04:30:53;;;;;;;10.83;4.30;;;8.90;99.90;;;;;;4846137;29;20624;-80
2023/02/02 04:34:30;;;;;;;9.13;3.87;;;8.90;99.90;;;;;;4817082;29;22377;-81
2023/02/02 04:37:42;;;;;;;10.93;4.30;;;8.80;99.90;;;;;;4826788;29;20482;-80
2023/02/02 04:40:55;;;;;;;16.73;4.30;;;8.80;99.90;;;;;;4827236;29;20996;-80
2023/02/02 04:44:48;;;;;;;12.00;4.57;;;8.80;99.90;;;;;;4810705;29;21099;-79
2023/02/02 04:47:41;;;;;;;7.37;3.30;;;8.80;99.90;;;;;;4794434;29;20447;-79
2023/02/02 04:51:13;;;;;;;;;;;;;;;;;;;;;
2023/02/02 04:54:58;;;;;;;6.40;4.00;;;8.80;99.90;;;;;;4799125;29;20494;-79
2023/02/02 04:58:06;;;;;;;11.20;4.30;;;8.80;99.90;;;;;;4812812;29;20471;-79
2023/02/02 05:01:40;;;;;;;11.33;3.83;;;8.80;99.90;;;;;;4800250;29;20479;-79
2023/02/02 05:05:05;;;;;;;8.53;4.10;;;8.80;99.90;;;;;;4801423;29;20522;-79
2023/02/02 05:08:32;;;;;;;;;;;;;;;;;;;;;
2023/02/02 05:11:56;;;;;;;;;;;;;;;;;;;;;
2023/02/02 05:15:25;;;;;;;;;;;;;;;;;;;;;
2023/02/02 05:18:55;;;;;;;;;;;;;;;;;;;;;
2023/02/02 05:22:11;;;;;;;10.77;4.90;;;8.70;99.90;;;;;;4799125;29;21001;-80
2023/02/02 05:24:58;;;;;;;12.07;4.93;;;8.70;99.90;;;;;;4822703;29;20468;-80
2023/02/02 05:28:17;;;;;;;12.03;4.40;;;8.80;99.90;;;;;;4827195;29;20471;-79
2023/02/02 05:31:01;;;;;;;9.17;4.10;;;8.70;99.90;;;;;;4813898;29;20498;-79
2023/02/02 05:33:57;;;;;;;11.37;5.20;;;8.70;99.90;;;;;;4804790;29;20494;-80
2023/02/02 05:36:48;;;;;;;8.53;4.67;;;8.70;99.90;;;;;;4816006;29;20478;-79
2023/02/02 05:39:39;;;;;;;14.20;6.10;;;8.70;99.90;;;;;;4829503;29;20490;-80
2023/02/02 05:42:23;;;;;;;12.50;4.13;;;8.70;99.90;;;;;;4814921;29;20478;-79
2023/02/02 05:45:23;;;;;;;7.10;4.53;;;8.80;99.90;;;;;;4826519;29;20482;-79
2023/02/02 05:48:33;;;;;;;10.43;3.83;;;8.70;99.90;;;;;;4828323;29;20948;-80
2023/02/02 05:55:26;;;;;;;9.97;5.00;;;8.70;99.90;;;;;;4818399;29;20514;-78
2023/02/02 05:58:27;;;;;;;11.87;4.93;;;8.80;99.90;;;;;;4816723;29;20519;-80
2023/02/02 06:01:33;;;;;;;17.53;6.00;;;8.70;99.90;;;;;;4806635;29;20522;-80
2023/02/02 06:04:37;;;;;;;12.03;4.83;;;8.80;99.90;;;;;;4820429;29;20475;-80
2023/02/02 06:08:15;;;;;;;6.60;4.73;;;8.80;99.90;;;;;;4825365;29;20549;-80
2023/02/02 06:11:26;;;;;;;8.50;4.90;;;8.70;99.90;;;;;;4814938;29;20452;-80
2023/02/02 06:15:02;;;;;;;13.30;5.70;;;8.70;99.90;;;;;;4825783;29;20502;-80
2023/02/02 06:17:39;;;;;;;19.23;5.67;;;8.70;99.90;;;;;;4844126;29;20547;-79
2023/02/02 06:21:24;;;;;;;11.60;4.70;;;8.70;99.90;;;;;;4820460;29;20473;-79
2023/02/02 06:24:38;;;;;;;9.90;4.87;;;8.70;99.90;;;;;;4840349;29;20470;-80
2023/02/02 06:31:07;;;;;;;;;;;;;;;;;;;;;
2023/02/02 06:38:33;;;;;;;;;;;;;;;;;;;;;
2023/02/02 06:41:28;;;;;;;14.50;6.53;;;8.80;99.90;;;;;;4763664;30;20954;-80
2023/02/02 06:44:33;;;;;;;12.53;5.20;;;8.80;99.90;;;;;;4760780;30;20482;-80
2023/02/02 06:47:56;;;;;;;14.30;5.83;;;8.80;99.90;;;;;;4738618;30;20458;-78
2023/02/02 06:51:18;;;;;;;11.30;5.37;;;8.80;99.90;;;;;;4714205;30;20453;-79
2023/02/02 06:54:40;;;;;;;8.67;5.60;;;8.80;99.90;;;;;;4731296;30;20463;-78
2023/02/02 07:02:01;;;;;;;10.53;5.30;;;8.80;99.90;;;;;;4731724;30;20467;-81
2023/02/02 07:05:30;;;;;;;10.33;5.83;;;8.90;99.90;;;;;;4772670;29;20541;-80
2023/02/02 07:08:42;;;;;;;;;;;;;;;;;;;;;
2023/02/02 07:12:13;;;;;;;;;;;;;;;;;;;;;
2023/02/02 07:16:01;;;;;;;;;;;;;;;;;;;;;
2023/02/02 07:23:30;;;;;;;;;;;;;;;;;;;;;
2023/02/02 07:27:37;;;;;;;;;;;;;;;;;;;;;
2023/02/02 07:39:14;;;;;;;13.67;5.90;;;8.80;99.90;;;;;;4668931;30;20556;-79
2023/02/02 07:46:05;;;;;;;;;;;;;;;;;;;;;
2023/02/02 07:49:50;;;;;;;;;;;;;;;;;;;;;
2023/02/02 07:53:42;;;;;;;;;;;;;;;;;;;;;
2023/02/02 08:01:10;;;;;;;8.93;5.10;;;8.90;99.90;;;;;;4734378;29;21009;-80
2023/02/02 08:16:26;;;;;;;13.73;5.10;;;8.90;99.90;;;;;;4649790;30;20474;-80
2023/02/02 08:19:55;;;;;;;;;;;;;;;;;;;;;
2023/02/02 08:27:09;;;;;;;9.90;5.17;;;8.80;99.90;;;;;;4699707;30;20700;-80
2023/02/02 08:34:58;;;;;;;;;;;;;;;;;;;;;
2023/02/02 08:38:07;;;;;;;;;;;;;;;;;;;;;
2023/02/02 08:41:38;;;;;;;8.50;5.20;;;8.80;99.90;;;;;;4765271;29;20464;-80
2023/02/02 08:49:24;;;;;;;10.27;4.90;;;8.90;99.90;;;;;;4737034;30;20471;-79
2023/02/02 08:52:38;;;;;;;11.40;4.97;;;8.90;99.90;;;;;;4672547;30;20498;-79
2023/02/02 08:56:37;;;;;;;;;;;;;;;;;;;;;
2023/02/02 09:00:10;;;;;;;;;;;;;;;;;;;;;
2023/02/02 09:21:54;;;;;;;13.87;8.40;;;9.00;99.90;;;;;;4686902;30;20476;-80
2023/02/02 09:24:50;;;;;;;23.77;8.80;;;9.00;99.90;;;;;;4693333;30;20538;-79
2023/02/02 09:27:39;;;;;;;11.30;6.53;;;9.10;99.90;;;;;;4736388;30;20467;-79
2023/02/02 09:34:54;;;;;;;8.07;5.63;;;9.10;99.90;;;;;;4731877;30;20482;-81
2023/02/02 09:41:33;;;;;;;11.20;6.33;;;9.20;99.90;;;;;;4654475;30;20490;-81
2023/02/02 09:51:24;;;;;;;9.73;5.97;;;9.20;99.90;;;;;;4652438;30;20558;-80
2023/02/02 09:54:14;;;;;;;7.20;4.93;;;9.20;99.90;;;;;;4707476;30;21009;-79
2023/02/02 09:56:54;;;;;;;10.07;5.83;;;9.10;99.90;;;;;;4735215;30;20481;-80
2023/02/02 09:59:42;;;;;;;8.87;6.00;;;9.10;99.90;;;;;;4752781;30;20498;-79
2023/02/02 10:02:50;;;;;;;14.90;6.80;;;9.20;99.90;;;;;;4737261;30;20555;-82
2023/02/02 10:06:03;;;;;;;10.90;5.87;;;9.10;99.90;;;;;;4756482;30;20670;-82
2023/02/02 10:08:54;;;;;;;11.10;6.30;;;9.10;99.90;;;;;;4757252;30;20484;-79
2023/02/02 10:11:56;;;;;;;7.70;5.60;;;9.10;99.90;;;;;;4793661;29;20518;-79
2023/02/02 10:14:37;;;;;;;10.33;7.03;;;9.00;99.90;;;;;;4812271;29;20467;-80
2023/02/02 10:17:46;;;;;;;;;;;;;;;;;;;;;
2023/02/02 10:20:44;;;;;;;7.53;6.43;;;9.10;99.90;;;;;;4812688;29;20494;-80
2023/02/02 10:23:44;;;;;;;12.60;5.47;;;9.10;99.90;;;;;;4808432;29;20530;-80
2023/02/02 10:26:29;;;;;;;8.53;5.30;;;9.10;99.90;;;;;;4811611;29;22131;-80
2023/02/02 10:29:26;;;;;;;10.50;5.40;;;9.10;99.90;;;;;;4814516;29;21623;-80
2023/02/02 10:33:02;;;;;;;8.97;6.13;;;9.10;99.90;;;;;;4810662;29;20486;-82
2023/02/02 10:36:01;;;;;;;10.67;5.70;;;9.20;99.90;;;;;;4813179;29;21094;-81
2023/02/02 10:39:07;;;;;;;8.33;5.80;;;9.20;99.90;;;;;;4823192;29;20670;-82
2023/02/02 10:42:34;;;;;;;11.10;6.00;;;9.20;99.90;;;;;;4826210;29;20619;-81
2023/02/02 10:45:32;;;;;;;11.37;6.93;;;9.20;99.90;;;;;;4810125;29;20489;-79
2023/02/02 10:48:29;;;;;;;13.17;6.17;;;9.20;99.90;;;;;;4820842;29;20491;-81
2023/02/02 10:51:25;;;;;;;10.93;6.13;;;9.20;99.90;;;;;;4812544;29;20469;-82
2023/02/02 10:53:58;;;;;;;14.93;6.53;;;9.20;99.90;;;;;;4811368;29;20467;-81
2023/02/02 10:56:51;;;;;;;8.90;6.27;;;9.30;99.90;;;;;;4816581;29;20473;-80
2023/02/02 10:59:40;;;;;;;10.30;5.97;;;9.20;99.90;;;;;;4815879;29;20579;-81
2023/02/02 11:02:16;;;;;;;8.57;5.57;;;9.30;99.90;;;;;;4828828;29;20492;-79
2023/02/02 11:07:41;;;;;;;8.63;5.23;;;9.30;99.90;;;;;;4820809;29;20486;-80
2023/02/02 11:10:18;;;;;;;12.73;6.83;;;9.30;99.90;;;;;;4816770;29;20470;-82
2023/02/02 11:12:55;;;;;;;7.63;5.43;;;9.30;99.90;;;;;;4814909;29;20498;-81
2023/02/02 11:15:29;;;;;;;9.93;6.40;;;9.30;99.90;;;;;;4817064;29;20471;-80
2023/02/02 11:18:26;;;;;;;10.30;5.50;;;9.30;99.90;;;;;;4814724;29;20459;-81
2023/02/02 11:21:06;;;;;;;13.10;7.53;;;9.40;99.90;;;;;;4811684;29;20561;-80
2023/02/02 11:24:03;;;;;;;9.37;5.27;;;9.50;99.90;;;;;;4816902;29;20467;-79
2023/02/02 11:27:00;;;;;;;11.00;7.10;;;9.50;99.90;;;;;;4815562;29;20476;-81
2023/02/02 11:29:40;;;;;;;10.83;5.93;;;9.50;99.90;;;;;;4828880;29;20511;-81
2023/02/02 11:32:31;;;;;;;10.23;6.17;;;9.50;99.90;;;;;;4818783;29;20495;-80
2023/02/02 11:35:10;;;;;;;10.90;5.70;;;9.50;99.90;;;;;;4819757;29;20487;-81
2023/02/02 11:38:16;;;;;;;9.47;5.90;;;9.50;99.90;;;;;;4818164;29;20470;-80
2023/02/02 11:41:11;;;;;;;7.23;5.73;;;9.50;99.90;;;;;;4820448;29;20483;-79
2023/02/02 11:43:56;;;;;;;9.60;5.40;;;9.50;99.90;;;;;;4824137;29;20858;-79
2023/02/02 11:46:31;;;;;;;14.50;6.87;;;9.50;99.90;;;;;;4831688;29;20471;-79
2023/02/02 11:49:31;;;;;;;;;;;;;;;;;;;;;
2023/02/02 11:52:21;;;;;;;14.50;5.83;;;9.60;99.90;;;;;;4822706;29;20490;-80
2023/02/02 11:54:58;;;;;;;5.90;5.20;;;9.70;99.90;;;;;;4838622;29;20478;-80
2023/02/02 11:57:27;;;;;;;8.20;5.97;;;9.70;99.90;;;;;;4846806;29;20474;-79
2023/02/02 12:00:17;;;;;;;10.50;6.67;;;9.70;99.90;;;;;;4832375;29;20479;-79
2023/02/02 12:02:48;;;;;;;10.73;6.20;;;9.70;99.90;;;;;;4832523;29;20487;-79
2023/02/02 12:05:33;;;;;;;7.03;5.77;;;9.70;99.90;;;;;;4831488;29;20450;-78
2023/02/02 12:08:00;;;;;;;8.40;5.60;;;9.80;99.90;;;;;;4831733;29;20455;-79
2023/02/02 12:10:40;;;;;;;8.90;5.33;;;9.80;99.90;;;;;;4832612;29;20492;-79
2023/02/02 12:13:33;;;;;;;7.37;6.13;;;9.80;99.90;;;;;;4829658;29;20498;-80
2023/02/02 12:16:28;;;;;;;11.77;7.00;;;9.80;99.90;;;;;;4821638;29;20474;-81
2023/02/02 12:19:33;;;;;;;10.57;7.00;;;9.80;99.90;;;;;;4828636;29;20502;-80
2023/02/02 12:22:24;;;;;;;9.20;5.97;;;9.80;99.90;;;;;;4830853;29;20558;-79
2023/02/02 12:24:59;;;;;;;10.43;6.27;;;9.90;99.90;;;;;;4818899;29;20474;-81
2023/02/02 12:27:55;;;;;;;19.23;6.30;;;9.90;99.90;;;;;;4832334;29;20471;-81
2023/02/02 12:30:45;;;;;;;13.20;6.80;;;10.00;99.90;;;;;;4834928;29;20463;-80
2023/02/02 12:33:28;;;;;;;15.57;5.80;;;10.00;99.90;;;;;;4819381;29;20518;-81
2023/02/02 12:36:24;;;;;;;9.23;6.47;;;10.00;99.90;;;;;;4829073;29;20479;-79
2023/02/02 12:39:07;;;;;;;10.13;5.37;;;10.10;99.90;;;;;;4817584;29;20478;-79
2023/02/02 12:42:05;;;;;;;13.07;6.07;;;10.10;99.90;;;;;;4811162;29;20558;-81
2023/02/02 12:44:52;;;;;;;10.30;5.93;;;10.20;99.90;;;;;;4811401;29;20466;-79
2023/02/02 12:47:32;;;;;;;11.33;6.80;;;10.20;99.90;;;;;;4815613;29;20455;-80
2023/02/02 12:50:22;;;;;;;6.53;5.90;;;10.20;99.90;;;;;;4829476;29;20481;-79
2023/02/02 12:53:31;;;;;;;6.03;5.00;;;10.30;99.90;;;;;;4826229;29;20511;-80
2023/02/02 12:56:21;;;;;;;8.77;6.40;;;10.40;99.90;;;;;;4829402;29;20571;-82
2023/02/02 12:59:13;;;;;;;7.13;5.43;;;10.50;99.90;;;;;;4822626;29;20481;-81
2023/02/02 13:01:46;;;;;;;9.27;7.03;;;10.60;99.90;;;;;;4826524;29;20539;-80
2023/02/02 13:04:47;;;;;;;10.83;6.70;;;10.60;99.90;;;;;;4807989;29;20470;-80
2023/02/02 13:07:33;;;;;;;8.70;5.40;;;10.60;99.90;;;;;;4825478;29;21109;-81
2023/02/02 13:10:14;;;;;;;12.23;5.60;;;10.60;99.90;;;;;;4822101;29;20499;-82
2023/02/02 13:13:00;;;;;;;9.93;5.23;;;10.60;99.90;;;;;;4814757;29;21006;-80
2023/02/02 13:15:40;;;;;;;11.07;4.77;;;10.70;99.90;;;;;;4809616;29;20479;-81
2023/02/02 13:18:22;;;;;;;7.90;5.27;;;10.70;99.90;;;;;;4825993;29;20486;-80
2023/02/02 13:20:54;;;;;;;9.13;5.43;;;10.70;99.90;;;;;;4810223;29;21009;-82
2023/02/02 13:23:45;;;;;;;6.93;4.80;;;10.70;99.90;;;;;;4834342;29;20493;-79
2023/02/02 13:26:21;;;;;;;5.37;4.80;;;10.70;99.90;;;;;;4817608;29;20471;-80
2023/02/02 13:29:00;;;;;;;7.07;4.73;;;10.70;99.90;;;;;;4828471;29;20474;-79
2023/02/02 13:31:36;;;;;;;8.93;5.00;;;10.80;99.90;;;;;;4833117;29;20502;-80
2023/02/02 13:34:14;;;;;;;6.60;4.50;;;10.70;99.90;;;;;;4830361;29;20538;-80
2023/02/02 13:36:46;;;;;;;10.53;5.50;;;10.70;99.90;;;;;;4811098;29;20463;-81
2023/02/02 13:39:28;;;;;;;7.40;4.83;;;10.60;99.90;;;;;;4809986;29;20862;-81
2023/02/02 13:41:56;;;;;;;8.73;4.60;;;10.60;99.90;;;;;;4810747;29;20494;-80
2023/02/02 13:44:30;;;;;;;10.23;5.67;;;10.60;99.90;;;;;;4814174;29;20498;-81
2023/02/02 13:47:09;;;;;;;5.97;4.43;;;10.60;99.90;;;;;;4813139;29;20470;-80
2023/02/02 13:49:52;;;;;;;4.83;4.40;;;10.70;99.90;;;;;;4828023;29;20459;-80
2023/02/02 13:52:34;;;;;;;7.33;4.00;;;10.70;99.90;;;;;;4828236;29;20621;-81
2023/02/02 13:55:30;;;;;;;6.80;3.70;;;10.70;99.90;;;;;;4824562;29;20479;-80
2023/02/02 13:58:35;;;;;;;10.70;3.90;;;10.70;99.90;;;;;;4815579;29;20463;-81
2023/02/02 14:01:06;;;;;;;6.03;3.80;;;10.70;99.90;;;;;;4828149;29;20614;-82
2023/02/02 14:03:39;;;;;;;4.83;3.30;;;10.60;99.90;;;;;;4809980;29;20590;-79
2023/02/02 14:06:22;;;;;;;10.10;3.53;;;10.60;99.90;;;;;;4826941;29;20616;-81
2023/02/02 14:08:58;;;;;;;4.40;3.60;;;10.60;99.90;;;;;;4834702;29;20959;-79
2023/02/02 14:11:32;;;;;;;8.27;3.50;;;10.70;99.90;;;;;;4835472;29;20508;-80
2023/02/02 14:14:37;;;;;;;5.70;2.70;;;10.70;99.90;;;;;;4829534;29;20538;-82
2023/02/02 14:17:27;;;;;;;8.90;4.13;;;10.70;99.90;;;;;;4809489;29;20549;-81
2023/02/02 14:19:56;;;;;;;8.30;4.20;;;10.70;99.90;;;;;;4811250;29;20582;-81
2023/02/02 14:22:41;;;;;;;6.67;3.27;;;10.80;99.90;;;;;;4813326;29;20601;-81
2023/02/02 14:25:46;;;;;;;6.23;3.23;;;10.80;99.90;;;;;;4812325;29;20562;-81
2023/02/02 14:28:41;;;;;;;4.57;2.80;;;10.70;99.90;;;;;;4827487;29;20484;-82
2023/02/02 14:31:41;;;;;;;6.80;3.07;;;10.70;99.90;;;;;;4827868;29;20484;-80
2023/02/02 14:34:27;;;;;;;7.30;3.43;;;10.70;99.90;;;;;;4812774;29;20472;-80
2023/02/02 14:37:22;;;;;;;7.20;3.03;;;10.70;99.90;;;;;;4812303;29;20478;-81
2023/02/02 14:40:15;;;;;;;2.70;2.50;;;10.70;99.90;;;;;;4807655;29;20590;-81
2023/02/02 14:46:07;;;;;;;8.60;3.20;;;10.70;99.90;;;;;;4811648;29;20467;-81
2023/02/02 14:48:37;;;;;;;6.30;3.10;;;10.70;99.90;;;;;;4809205;29;20988;-81
2023/02/02 14:51:25;;;;;;;5.03;2.70;;;10.70;99.90;;;;;;4811656;29;21874;-82
2023/02/02 14:53:56;;;;;;;6.87;2.40;;;10.70;99.90;;;;;;4828118;29;20471;-82
2023/02/02 14:56:48;;;;;;;3.57;2.40;;;10.70;99.90;;;;;;4824331;29;20535;-80
2023/02/02 14:59:24;;;;;;;10.30;2.97;;;10.70;99.90;;;;;;4838847;29;20460;-82
2023/02/02 15:02:05;;;;;;;7.83;2.90;;;10.60;99.90;;;;;;4831054;29;20537;-82
2023/02/02 15:04:33;;;;;;;7.30;2.60;;;10.60;99.90;;;;;;4815525;29;21683;-80
2023/02/02 15:07:49;;;;;;;4.60;2.60;;;10.60;99.90;;;;;;4831654;29;20498;-82
2023/02/02 15:10:52;;;;;;;8.40;2.27;;;10.60;99.90;;;;;;4813233;29;20489;-81
2023/02/02 15:13:23;;;;;;;5.53;2.77;;;10.70;99.90;;;;;;4833925;29;20491;-81
2023/02/02 15:16:03;;;;;;;6.10;2.70;;;10.60;99.90;;;;;;4826724;29;20504;-80
2023/02/02 15:18:38;;;;;;;6.27;2.80;;;10.70;99.90;;;;;;4817947;29;20516;-80
2023/02/02 15:21:07;;;;;;;5.07;2.23;;;10.60;99.90;;;;;;4816070;29;20485;-80
2023/02/02 15:23:43;;;;;;;7.23;2.70;;;10.60;99.90;;;;;;4816079;29;20989;-80
2023/02/02 15:26:24;;;;;;;4.97;3.00;;;10.60;99.90;;;;;;4812231;29;20517;-80
2023/02/02 15:29:06;;;;;;;6.93;2.40;;;10.60;99.90;;;;;;4829571;29;20598;-80
2023/02/02 15:31:43;;;;;;;11.13;4.00;;;10.60;99.90;;;;;;4828398;29;20479;-80
2023/02/02 15:34:23;;;;;;;4.53;2.13;;;10.60;99.90;;;;;;4818371;29;21035;-80
2023/02/02 15:36:53;;;;;;;5.47;3.93;;;10.60;99.90;;;;;;4820750;29;20475;-81
2023/02/02 15:39:41;;;;;;;10.43;2.87;;;10.60;99.90;;;;;;4825601;29;20550;-79
2023/02/02 15:42:51;;;;;;;5.63;2.10;;;10.60;99.90;;;;;;4813213;29;20568;-79
2023/02/02 15:45:33;;;;;;;4.23;2.60;;;10.60;99.90;;;;;;4810773;29;20464;-79
2023/02/02 15:48:06;;;;;;;8.60;2.93;;;10.70;99.90;;;;;;4828395;29;20528;-80
2023/02/02 15:50:35;;;;;;;9.00;2.73;;;10.60;99.90;;;;;;4814942;29;20479;-81
2023/02/02 15:53:03;;;;;;;7.00;2.80;;;10.70;99.90;;;;;;4825788;29;20522;-81
2023/02/02 15:55:33;;;;;;;7.67;3.20;;;10.70;99.90;;;;;;4826779;29;20850;-79
2023/02/02 15:58:02;;;;;;;4.00;2.83;;;10.60;99.90;;;;;;4826194;29;20499;-81
2023/02/02 16:00:34;;;;;;;7.37;3.87;;;10.60;99.90;;;;;;4809730;29;22700;-81
2023/02/02 16:03:21;;;;;;;4.37;2.57;;;10.60;99.90;;;;;;4810765;29;20475;-80
2023/02/02 16:05:52;;;;;;;6.50;2.50;;;10.60;99.90;;;;;;4823345;29;20975;-81
2023/02/02 16:08:33;;;;;;;7.67;2.20;;;10.60;99.90;;;;;;4827798;29;20479;-79
2023/02/02 16:11:07;;;;;;;6.97;2.93;;;10.60;99.90;;;;;;4809170;29;20566;-81
2023/02/02 16:13:36;;;;;;;4.30;2.60;;;10.60;99.90;;;;;;4813235;29;20470;-81
2023/02/02 16:16:23;;;;;;;7.53;2.20;;;10.50;99.90;;;;;;4813799;29;20503;-80
2023/02/02 16:19:22;;;;;;;5.97;2.60;;;10.50;99.90;;;;;;4827645;29;21005;-81
2023/02/02 16:22:04;;;;;;;5.43;2.07;;;10.50;99.90;;;;;;4821368;29;20801;-81
2023/02/02 16:24:34;;;;;;;2.20;2.07;;;10.60;99.90;;;;;;4822527;29;20469;-81
2023/02/02 16:27:06;;;;;;;2.57;2.33;;;10.60;99.90;;;;;;4824204;29;20464;-80
2023/02/02 16:29:34;;;;;;;6.27;2.63;;;10.60;99.90;;;;;;4825886;29;20486;-81
2023/02/02 16:32:03;;;;;;;6.77;2.67;;;10.50;99.90;;;;;;4814014;29;20491;-81
2023/02/02 16:34:40;;;;;;;6.20;2.60;;;10.60;99.90;;;;;;4817568;29;20464;-80
2023/02/02 16:37:21;;;;;;;9.23;2.43;;;10.60;99.90;;;;;;4801831;29;20464;-80
2023/02/02 16:39:48;;;;;;;4.63;2.53;;;10.60;99.90;;;;;;4811320;29;20456;-80
2023/02/02 16:42:33;;;;;;;4.40;2.43;;;10.50;99.90;;;;;;4798761;29;20524;-80
2023/02/02 16:45:00;;;;;;;6.80;2.50;;;10.50;99.90;;;;;;4816507;29;20456;-81
2023/02/02 16:47:27;;;;;;;3.77;2.40;;;10.50;99.90;;;;;;4796657;29;20473;-80
2023/02/02 16:50:08;;;;;;;7.33;2.67;;;10.50;99.90;;;;;;4795296;29;20468;-80
2023/02/02 16:53:10;;;;;;;5.50;2.23;;;10.50;99.90;;;;;;4858687;23;20496;-80
2023/02/02 16:55:57;;;;;;;4.77;2.83;;;10.50;99.90;;;;;;4829174;29;20486;-81
2023/02/02 16:59:14;;;;;;;5.50;2.67;;;10.50;99.90;;;;;;4794510;29;20477;-80
2023/02/02 17:01:57;;;;;;;4.13;2.50;;;10.50;99.90;;;;;;4809871;29;21276;-82
2023/02/02 17:04:46;;;;;;;8.40;2.87;;;10.50;99.90;;;;;;4810263;29;20485;-81
2023/02/02 17:07:23;;;;;;;5.80;2.53;;;10.60;99.90;;;;;;4802005;29;20460;-82
2023/02/02 17:10:19;;;;;;;8.57;2.57;;;10.60;99.90;;;;;;4811021;29;20477;-80
2023/02/02 17:12:50;;;;;;;5.30;2.43;;;10.50;99.90;;;;;;4808879;29;20479;-80
2023/02/02 17:15:35;;;;;;;12.70;3.10;;;10.60;99.90;;;;;;4798196;29;20474;-79
2023/02/02 17:18:27;;;;;;;5.00;2.00;;;10.60;99.90;;;;;;4820719;29;20479;-81
2023/02/02 17:21:16;;;;;;;6.70;2.20;;;10.50;99.90;;;;;;4813066;29;20502;-80
2023/02/02 17:24:25;;;;;;;3.33;1.87;;;10.50;99.90;;;;;;4814721;29;20459;-81
2023/02/02 17:27:03;;;;;;;8.10;2.10;;;10.50;99.90;;;;;;4841393;29;20468;-79
2023/02/02 17:29:40;;;;;;;4.33;2.33;;;10.50;99.90;;;;;;4867705;29;20547;-81
2023/02/02 17:32:20;;;;;;;3.00;2.70;;;10.50;99.90;;;;;;4855673;29;20504;-81
2023/02/02 17:35:35;;;;;;;5.50;2.50;;;10.60;99.90;;;;;;4871788;29;20465;-79
2023/02/02 17:38:33;;;;;;;3.33;2.30;;;10.50;99.90;;;;;;4860736;29;20465;-79
2023/02/02 17:41:13;;;;;;;3.43;2.70;;;10.50;99.90;;;;;;4870268;29;20513;-81
2023/02/02 17:44:08;;;;;;;5.00;2.70;;;10.50;99.90;;;;;;4866566;29;20461;-80
2023/02/02 17:46:48;;;;;;;8.47;2.63;;;10.50;99.90;;;;;;4852436;29;20472;-81
2023/02/02 17:49:24;;;;;;;6.47;2.70;;;10.50;99.90;;;;;;4854027;29;20476;-80
2023/02/02 17:52:20;;;;;;;4.43;2.30;;;10.50;99.90;;;;;;4845946;29;20501;-80
2023/02/02 17:55:36;;;;;;;4.70;2.53;;;10.50;99.90;;;;;;4858535;29;20547;-81
2023/02/02 17:58:19;;;;;;;7.03;2.90;;;10.50;99.90;;;;;;4845127;29;20544;-79
2023/02/02 18:01:06;;;;;;;4.40;3.00;;;10.50;99.90;;;;;;4845120;29;20506;-81
2023/02/02 18:03:36;;;;;;;8.10;3.27;;;10.40;99.90;;;;;;4851996;29;20477;-80
2023/02/02 18:06:03;;;;;;;5.67;3.00;;;10.40;99.90;;;;;;4848527;29;20827;-80
2023/02/02 18:08:44;;;;;;;4.47;2.90;;;10.40;99.90;;;;;;4864254;29;20588;-80
2023/02/02 18:11:40;;;;;;;10.93;3.40;;;10.30;99.90;;;;;;4867588;29;20511;-79
2023/02/02 18:14:18;;;;;;;3.90;3.50;;;10.30;99.90;;;;;;4853909;29;20500;-81
2023/02/02 18:16:55;;;;;;;5.73;3.20;;;10.30;99.90;;;;;;4847476;29;20467;-80
2023/02/02 18:19:45;;;;;;;4.73;3.37;;;10.30;99.90;;;;;;4869260;29;20456;-78
2023/02/02 18:22:29;;;;;;;5.00;3.40;;;10.30;99.90;;;;;;4865768;29;20636;-79
2023/02/02 18:25:17;;;;;;;6.60;3.23;;;10.20;99.90;;;;;;4856740;29;20499;-79
2023/02/02 18:28:33;;;;;;;7.20;3.70;;;10.20;99.90;;;;;;4868203;29;20472;-79
2023/02/02 18:31:16;;;;;;;4.63;3.10;;;10.10;99.90;;;;;;4852094;29;20465;-79
2023/02/02 18:34:10;;;;;;;5.87;3.90;;;10.10;99.90;;;;;;4869162;29;20427;-79
2023/02/02 18:39:41;;;;;;;5.67;3.23;;;10.10;99.90;;;;;;4861734;29;20463;-80
2023/02/02 18:42:30;;;;;;;8.07;3.70;;;10.00;99.90;;;;;;4870269;29;20908;-80
2023/02/02 18:45:10;;;;;;;4.43;3.87;;;10.00;99.90;;;;;;4877447;29;20464;-82
2023/02/02 18:47:58;;;;;;;8.33;4.50;;;9.90;99.90;;;;;;4868695;29;20498;-81
2023/02/02 18:50:41;;;;;;;11.90;4.90;;;9.90;99.90;;;;;;4857562;29;20816;-78
2023/02/02 18:53:16;;;;;;;7.83;3.97;;;9.90;99.90;;;;;;4865696;29;20508;-79
2023/02/02 18:56:22;;;;;;;5.90;4.37;;;9.90;99.90;;;;;;4860892;29;20540;-79
2023/02/02 18:59:21;;;;;;;5.67;4.40;;;9.90;99.90;;;;;;4848250;29;20473;-83
2023/02/02 19:02:01;;;;;;;4.63;3.87;;;9.90;99.90;;;;;;4846482;29;20492;-79
2023/02/02 19:04:36;;;;;;;5.47;4.17;;;10.00;99.90;;;;;;4851465;29;20559;-79
2023/02/02 19:13:23;;;;;;;8.53;5.10;;;10.00;99.90;;;;;;4857376;29;20497;-79
2023/02/02 19:16:27;;;;;;;6.33;3.97;;;10.00;99.90;;;;;;4852150;29;20460;-80
2023/02/02 19:19:45;;;;;;;;;;;;;;;;;;;;;